Schulenburg, Texas
Current Conditions -  °F | °C
As of 3:10 AM on Thursday 18 Dec 2014 (Local Time) from K3T5 Reporting Station
Haze Haze  
Wind Chill: 53°   Ceiling: 600
Heat Index: 53°   Visibility: 5mi
Dew Point: 52°   Wind: 6mph
Humidity: 96%   Direction: 350°N
Pressure: 30.06"   Gusts: NA
Location:  29.68°N, 96.9°W
Report Text: K3T5 180910Z AUTO 35005KT 5SM BR OVC006 12/11 A3006 RMK AO2 T01180112
Loading
Personal Weather Stations






























Interactive Weather Map New forecast layout! Learn more

10-Day Weather Forecast

Advertisements
Track Severe Weather on mobile